• Join FlightAware (Why Join?)
  • Login
  • US Flag 
12:27PM EDT


 

Airport Tracker/Info


-or-


 

Live Flight TrackerFlight Track Log ✈ SKW6525 ✈ 18-Aug-2013 ✈ KORD - KIND

Flight Track Log - Related Links

Times and Time Zones

All times are in EDT time to prevent confusion due to time zone crossing. See the SKW6525 flight status page for this flight to view local times or setup timezone preferences in your user account.

Time Position Orientation Groundspeed Altitude Reporting Facility
EDT Latitude Longitude Course Direction KTS MPH feet Rate Location/Type
02:24PM 41.9500 -87.8500 166° South 201 231 3,200  Level Chicago TRACON
02:25PM 41.9000 -87.8000 143° Southeast 260 299 5,000 1,080 Climbing Chicago TRACON
02:25PM 41.8611 -87.7875 167° South 259 298 5,000 60 Level Chicago Center
02:26PM 41.7111 -87.7073 159° South  Level Estimated
02:26PM 41.7867 -87.7828 177° South 266 306 5,100  Level Chicago Center
02:27PM 41.6209 -87.6412 153° Southeast  Level Estimated
02:27PM 41.7111 -87.7692 172° South 271 312 8,300  Level Chicago Center
02:28PM 41.5212 -87.6074 166° South  Level FlightAware Approximate
02:28PM 41.6408 -87.7214 153° Southeast 283 326 11,100  Level Chicago Center
02:29PM 41.4315 -87.5402 166° South  Level Estimated
02:29PM 41.5469 -87.6644 156° South 308 354 14,000  Level Chicago Center
02:31PM 41.4644 -87.6158 156° South 319 367 16,300 2,040 Climbing Chicago Center
02:32PM 41.3764 -87.5644 156° South 338 389 18,300 1,980 Climbing Chicago Center
02:33PM 41.2850 -87.5117 157° South 351 404 20,400 1,980 Climbing Chicago Center
02:34PM 41.1906 -87.4575 157° South 363 418 22,400 1,200 Climbing Chicago Center
02:35PM 41.0903 -87.3997 157° South 382 440 23,000 240 Climbing Chicago Center
02:36PM 40.9606 -87.3264 157° South 417 480 22,900  Descending Chicago Center
02:37PM 40.8550 -87.2658 157° South 416 479 23,000  Climbing Chicago Center
02:38PM 40.7508 -87.2067 157° South 411 473 22,900 -300 Descending Chicago Center
02:39PM 40.6483 -87.1486 157° South 406 467 22,400 -1,440 Descending Chicago Center
02:40PM 40.5469 -87.0942 158° South 399 459 19,900 -2,280 Descending Chicago Center
02:41PM 40.4500 -87.0364 156° South 389 448 17,700 -2,520 Descending Chicago Center
02:42PM 40.3408 -86.9767 157° South 363 418 14,800 -2,280 Descending Chicago Center
02:43PM 40.2553 -86.9267 156° South 344 396 13,000 -900 Descending Chicago Center
02:44PM 40.1728 -86.8803 157° South 331 381 13,000 -120 Level Chicago Center
02:45PM 40.1072 -86.7964 136° Southeast 337 388 12,800 -900 Descending Chicago Center
02:46PM 40.0350 -86.7411 150° Southeast 309 356 11,200 -1,620 Descending Chicago Center
02:47PM 39.9922 -86.7075 149° Southeast 301 346 10,100 -1,920 Descending Indianapolis Center
02:48PM 39.9097 -86.6433 149° Southeast 292 336 8,000 -1,920 Descending Indianapolis Center
02:49PM 39.8433 -86.5931 150° Southeast 281 323 6,200 -1,740 Descending Indianapolis Center
02:50PM 39.7783 -86.5419 149° Southeast 278 320 4,500 -1,500 Descending Indianapolis Center
02:51PM 39.7167 -86.4933 149° Southeast 271 312 3,200 -900 Descending Indianapolis Center
02:52PM 39.6606 -86.4378 143° Southeast 229 264 2,700 -540 Descending Indianapolis Center
02:53PM 39.6558 -86.3867 97° East 182 209 2,100 -660 Descending Indianapolis Center
02:54PM 39.6822 -86.3514 46° Northeast 152 175 1,400 -660 Descending Indianapolis Center
02:55PM 39.7086 -86.3181 44° Northeast 140 161 800 -600 Descending Indianapolis Center